Paradise Valley, Nevada Weather observations

Data are for 10 minute period ending at time listed.
 Day   Time   Solar   Ave.   Ave.  Ave.  Vector  Max.   Baro.   Total    
  of    of     Rad.   Air    Rel.  Wind   Wind   Wind  Press.  Precip.   
Year   Day            Temp.  Hum.  Speed  Dir.   Gust                    
2014   (PST)  Kw/m2    F      %     mph   deg.    mph    mb.     in.     
-------------------------------------------------------------------------
 262    1:50   0.00   55.0    51    3.4   237     4.6   864.4    0.00 
 262    2:00   0.00   54.7    54    2.1   265     3.5   864.5    0.00 
 262    2:10   0.00   54.8    51    1.1   229     2.1   864.6    0.00 
 262    2:20   0.00   56.1    49    1.3   289     2.3   864.6    0.00 
 262    2:30   0.00   56.0    56    1.4   318     3.4   864.5    0.00 
 262    2:40   0.00   56.2    51    1.4   329     2.5   864.5    0.00 
 262    2:50   0.00   57.3    45    2.6   324     4.6   864.5    0.00 
 262    3:00   0.00   58.5    47    3.1   312     4.9   864.6    0.00 
 262    3:10   0.00   58.1    48    3.0    15     4.3   864.8    0.00 
 262    3:20   0.00   57.3    51    1.9    42     3.3   865.0    0.00 
 262    3:30   0.00   56.4    54    2.1   343     4.2   865.1    0.00 
 262    3:40   0.00   57.7    53    3.8   331     4.7   865.1    0.00 
 262    3:50   0.00   58.7    52    3.9   331     7.7   865.2    0.00 
 262    4:00   0.00   59.1    51    5.1   341     6.4   865.3    0.00 
 262    4:10   0.00   59.7    48    6.0   354     8.0   865.4    0.00 
 262    4:20   0.00   59.8    48    6.1   345     8.6   865.4    0.00 
 262    4:30   0.00   59.1    50    6.3   340     9.7   865.6    0.00 
 262    4:40   0.00   58.6    51    7.2   331     9.7   865.7    0.00 
 262    4:50   0.00   58.4    51    7.7   331    10.3   865.9    0.00 
 262    5:00   0.00   58.2    51    7.5   340     9.9   865.9    0.00 
 262    5:10   0.00   58.2    51    6.8   343     8.6   866.0    0.00 
 262    5:20   0.00   58.1    51    6.7   339     8.6   866.0    0.00 
 262    5:30   0.00   58.7    50    6.7   349     9.8   866.1    0.00 
 262    5:40   0.01   58.7    50    6.2   351     9.5   866.1    0.00 
 262    5:50   0.02   58.3    50    3.6    18     7.0   866.1    0.00 
 262    6:00   0.04   56.8    54    2.5     6     5.9   866.3    0.00 
 262    6:10   0.06   57.5    54    3.7   345     5.8   866.4    0.00 
 262    6:20   0.08   58.0    52    5.7   354     9.0   866.5    0.00 
 262    6:30   0.09   59.3    50    6.4     0     8.6   866.7    0.00 
 262    6:40   0.12   60.2    49    7.0     3     8.7   866.7    0.00 
 262    6:50   0.15   60.6    50    7.2     3     9.7   866.7    0.00 
 262    7:00   0.18   61.1    50    7.5   353    10.5   866.9    0.00 
 262    7:10   0.21   61.7    51    8.2   353    13.2   867.0    0.00 
 262    7:20   0.24   62.9    47    9.5   355    15.6   867.0    0.00 
 262    7:30   0.28   63.5    45    9.3     0    13.6   867.1    0.00 
 262    7:40   0.31   64.2    45    7.7     3    12.9   867.3    0.00 
 262    7:50   0.34   65.1    45    6.9     3    12.6   867.4    0.00 
 262    8:00   0.38   67.6    39   13.2    33    17.4   867.4    0.00 
 262    8:10   0.41   68.7    36   13.9    34    19.9   867.5    0.00 
 262    8:20   0.44   69.1    37   12.9    28    18.9   867.6    0.00 
 262    8:30   0.47   69.4    36   13.9    26    18.0   867.8    0.00 
 262    8:40   0.49   69.8    36   13.0    28    17.3   867.8    0.00 
 262    8:50   0.53   70.2    35   13.1    27    17.8   867.9    0.00 
 262    9:00   0.56   70.2    35   13.3    26    17.4   868.0    0.00 
 262    9:10   0.59   70.6    34   11.6    22    18.0   868.0    0.00 
 262    9:20   0.62   71.2    34   11.1    14    16.4   868.0    0.00 
 262    9:30   0.64   71.9    33   10.7    23    15.6   868.0    0.00 
 262    9:40   0.66   72.5    33   10.3    12    14.5   867.9    0.00 
 262    9:50   0.69   73.5    31   10.3    34    15.3   867.9    0.00 
 262   10:00   0.70   73.8    29   11.1    50    17.1   867.9    0.00 
 262   10:10   0.72   74.6    28   10.1    50    15.0   867.8    0.00 
 262   10:20   0.74   75.0    28   10.3    33    17.0   867.7    0.00 
 262   10:30   0.75   75.5    28    9.5    36    14.5   867.7    0.00 
 262   10:40   0.77   75.9    27   10.0    42    14.6   867.6    0.00 
 262   10:50   0.78   76.8    26    9.3    52    14.8   867.5    0.00 
 262   11:00   0.79   77.4    25    9.4    50    15.4   867.4    0.00 
 262   11:10   0.80   77.5    25    7.7    33    13.4   867.3    0.00 
 262   11:20   0.80   78.0    25    8.7    27    12.6   867.2    0.00 
 262   11:30   0.81   78.6    24    8.7    33    14.6   867.2    0.00 
 262   11:40   0.81   78.5    24    9.1    18    15.1   867.2    0.00 
 262   11:50   0.82   78.7    24    7.0     6    12.6   867.0    0.00 
 262   12:00   0.82   79.4    22    7.0    22    13.7   866.9    0.00 
 262   12:10   0.81   80.0    22    6.5    37    12.9   866.7    0.00 
 262   12:20   0.81   80.1    21    7.3    15    14.8   866.6    0.00 
 262   12:30   0.80   80.7    22    8.4    28    17.1   866.5    0.00 
 262   12:40   0.79   80.7    22    9.0    10    14.8   866.4    0.00 
 262   12:50   0.78   80.9    21    7.9    21    14.2   866.3    0.00 
 262   13:00   0.77   80.8    22    9.5     2    14.2   866.3    0.00 
 262   13:10   0.76   81.5    21    8.5     5    14.2   866.2    0.00 
 262   13:20   0.74   82.0    19    8.1    20    13.4   866.1    0.00 
 262   13:30   0.72   81.9    19    9.5    15    16.5   866.0    0.00 
 262   13:40   0.71   82.5    18    8.5    23    17.2   865.9    0.00 
 262   13:50   0.69   82.6    19    6.6     8    11.8   865.8    0.00 
 262   14:00   0.67   82.5    19    8.3     6    12.9   865.7    0.00 
 262   14:10   0.65   82.3    19    8.9     3    14.7   865.6    0.00 
 262   14:20   0.62   83.0    19    8.9    10    13.2   865.5    0.00 
 262   14:30   0.59   83.0    19    7.4     0    14.8   865.5    0.00 
 262   14:40   0.56   83.3    18    7.1    11    11.2   865.4    0.00 
 262   14:50   0.53   83.3    18    7.7    16    13.0   865.4    0.00 
 262   15:00   0.50   83.5    18    7.5    14    13.8   865.3    0.00 
 262   15:10   0.48   83.7    17    7.3    25    11.8   865.2    0.00 
 262   15:20   0.45   83.3    18    7.4    12    12.6   865.2    0.00 
 262   15:30   0.42   83.2    18    7.9     8    13.7   865.2    0.00 
 262   15:40   0.39   83.0    19    7.9   357    11.6   865.2    0.00 
 262   15:50   0.35   83.0    19    8.0    11    12.3   865.1    0.00 
 262   16:00   0.32   83.0    19    7.7    11    12.8   865.1    0.00 
 262   16:10   0.29   83.3    18    7.3    26    11.6   865.2    0.00 
 262   16:20   0.25   82.6    19    8.2    20    11.5   865.2    0.00 
 262   16:30   0.23   82.3    20    7.6    11    11.0   865.2    0.00 
 262   16:40   0.19   81.6    22    5.8   349    10.0   865.2    0.00 
 262   16:50   0.16   81.3    22    5.9    10     8.8   865.2    0.00 
 262   17:00   0.13   80.5    23    4.8    10     8.6   865.2    0.00 
 262   17:10   0.11   79.6    23    5.5    13     8.3   865.2    0.00 
 262   17:20   0.06   78.1    26    4.3     4     5.9   865.2    0.00 
 262   17:30   0.02   74.6    31    4.6   342     7.2   865.2    0.00 
 262   17:40   0.02   73.1    33    5.8   334     7.2   865.2    0.00 
 262   17:50   0.01   73.1    32    7.5   333    11.8   865.2    0.00 
 262   18:00   0.01   72.7    32    7.2   326     9.3   865.2    0.00 
 262   18:10   0.00   70.8    33    6.9   318     9.3   865.1    0.00 
 262   18:20   0.00   71.0    32    7.2   326    10.0   865.1    0.00 
 262   18:30   0.00   70.8    32    7.1   326     9.8   865.2    0.00 
 262   18:40   0.00   70.4    33    6.5   335     9.0   865.2    0.00 
 262   18:50   0.00   69.1    35    6.5   334    10.2   865.2    0.00 
 262   19:00   0.00   68.6    36    5.5   358     7.6   865.3    0.00 
 262   19:10   0.00   66.4    41    4.3   347     5.8   865.5    0.00 
 262   19:20   0.00   65.0    42    4.7   353     6.4   865.6    0.00 
 262   19:30   0.00   64.7    40    4.7   356     7.7   865.7    0.00 
 262   19:40   0.00   65.2    39    5.9   346     7.6   865.8    0.00 
 262   19:50   0.00   66.6    35    6.8    29     9.5   865.9    0.00 
 262   20:00   0.00   66.2    37    4.8    14     8.0   866.1    0.00 
 262   20:10   0.00   62.8    43    4.0   308     5.3   866.2    0.00 
 262   20:20   0.00   63.5    40    5.4   320     7.3   866.3    0.00 
 262   20:30   0.00   65.8    33    6.8   337    13.2   866.3    0.00 
 262   20:40   0.00   66.5    32    6.0   346    11.1   866.5    0.00 
 262   20:50   0.00   65.4    33    5.3   356     8.0   866.6    0.00 
 262   21:00   0.00   65.5    33    7.1     4    10.4   866.6    0.00 
 262   21:10   0.00   64.2    36    4.1   346     7.9   866.7    0.00 
 262   21:20   0.00   63.6    36    4.9   346     6.4   866.9    0.00 
 262   21:30   0.00   62.3    39    5.7   335     8.7   866.9    0.00 
 262   21:40   0.00   63.1    37    6.5   338     9.7   866.9    0.00 
 262   21:50   0.00   64.0    35    6.8   343    10.2   867.0    0.00 
 262   22:00   0.00   63.1    36    6.3   347     8.6   867.1    0.00 
 262   22:10   0.00   62.7    37    5.2     2     8.5   867.3    0.00 
 262   22:20   0.00   62.3    39    5.8   347     8.6   867.3    0.00 
 262   22:30   0.00   61.9    41    6.1   345     7.7   867.3    0.00 
 262   22:40   0.00   60.7    42    5.5   336     8.3   867.3    0.00 
 262   22:50   0.00   61.4    41    6.3   334     9.6   867.3    0.00 
 262   23:00   0.00   61.4    42    7.7   328    10.2   867.3    0.00 
 262   23:10   0.00   61.8    41    7.9   334    10.4   867.3    0.00 
 262   23:20   0.00   62.8    41    7.8   339     9.8   867.4    0.00 
 262   23:30   0.00   62.3    42    7.6   339    10.2   867.4    0.00 
 262   23:40   0.00   62.3    42    7.8   346    11.0   867.5    0.00 
 262   23:50   0.00   62.1    43    7.3   342    11.1   867.5    0.00 
 263    0:00   0.00   61.6    44    6.5   351     8.6   867.6    0.00 
 263    0:10   0.00   60.3    46    5.8   359     7.9   867.7    0.00 
 263    0:20   0.00   59.6    46    5.5     5     6.6   867.7    0.00 
 263    0:30   0.00   58.9    49    5.8   346     9.8   867.7    0.00 
 263    0:40   0.00   59.1    50    6.8   336     9.3   867.7    0.00 
 263    0:50   0.00   59.7    50    6.1   343     7.5   867.7    0.00 
 263    1:00   0.00   60.0    49    6.1   340     7.5   867.7    0.00 
 263    1:10   0.00   59.8    50    6.5   339    10.1   867.7    0.00 
 263    1:20   0.00   60.9    49    7.2   333    10.7   867.7    0.00 
 263    1:30   0.00   59.4    53    7.3   334     9.6   867.7    0.00 
 263    1:40   0.00   60.8    50    8.0   337    10.8   867.6    0.00 

Return to Paradise Valley graphs page.


Western Regional Climate Center,wrcc@dri.edu